sensor_id;sensor_type;location;lat;lon;timestamp;temperature;humidity
23738;DHT22;12049;51.068;3.688;2022-07-01T00:00:49;16.80;99.90
23738;DHT22;12049;51.068;3.688;2022-07-01T00:03:15;16.80;99.90
23738;DHT22;12049;51.068;3.688;2022-07-01T00:05:40;16.80;99.90
23738;DHT22;12049;51.068;3.688;2022-07-01T00:08:06;16.80;99.90
23738;DHT22;12049;51.068;3.688;2022-07-01T00:10:31;16.80;99.90
23738;DHT22;12049;51.068;3.688;2022-07-01T00:12:57;16.80;99.90
23738;DHT22;12049;51.068;3.688;2022-07-01T00:15:23;16.80;99.90
23738;DHT22;12049;51.068;3.688;2022-07-01T00:17:49;16.80;99.90
23738;DHT22;12049;51.068;3.688;2022-07-01T00:20:14;16.70;99.90
23738;DHT22;12049;51.068;3.688;2022-07-01T00:22:41;16.70;99.90
23738;DHT22;12049;51.068;3.688;2022-07-01T00:25:07;16.60;99.90
23738;DHT22;12049;51.068;3.688;2022-07-01T00:27:37;16.60;99.90
23738;DHT22;12049;51.068;3.688;2022-07-01T00:30:03;16.50;99.90
23738;DHT22;12049;51.068;3.688;2022-07-01T00:32:28;16.50;99.90
23738;DHT22;12049;51.068;3.688;2022-07-01T00:34:54;16.50;99.90
23738;DHT22;12049;51.068;3.688;2022-07-01T00:37:20;16.50;99.90
23738;DHT22;12049;51.068;3.688;2022-07-01T00:39:45;16.40;99.90
23738;DHT22;12049;51.068;3.688;2022-07-01T00:42:11;16.40;99.90
23738;DHT22;12049;51.068;3.688;2022-07-01T00:44:37;16.40;99.90
23738;DHT22;12049;51.068;3.688;2022-07-01T00:47:03;16.40;99.90
23738;DHT22;12049;51.068;3.688;2022-07-01T00:49:33;16.30;99.90
23738;DHT22;12049;51.068;3.688;2022-07-01T00:52:00;16.30;99.90
23738;DHT22;12049;51.068;3.688;2022-07-01T00:54:26;16.30;99.90
23738;DHT22;12049;51.068;3.688;2022-07-01T00:56:53;16.30;99.90
23738;DHT22;12049;51.068;3.688;2022-07-01T00:59:18;16.30;99.90
23738;DHT22;12049;51.068;3.688;2022-07-01T01:01:44;16.30;99.90
23738;DHT22;12049;51.068;3.688;2022-07-01T01:04:10;16.20;99.90
23738;DHT22;12049;51.068;3.688;2022-07-01T01:06:35;16.20;99.90
23738;DHT22;12049;51.068;3.688;2022-07-01T01:09:03;16.20;99.90
23738;DHT22;12049;51.068;3.688;2022-07-01T01:11:28;16.20;99.90
23738;DHT22;12049;51.068;3.688;2022-07-01T01:13:55;16.10;99.90
23738;DHT22;12049;51.068;3.688;2022-07-01T01:16:22;16.10;99.90
23738;DHT22;12049;51.068;3.688;2022-07-01T01:18:54;16.10;99.90
23738;DHT22;12049;51.068;3.688;2022-07-01T01:21:21;16.10;99.90
23738;DHT22;12049;51.068;3.688;2022-07-01T01:23:47;16.10;99.90
23738;DHT22;12049;51.068;3.688;2022-07-01T01:26:18;16.00;99.90
23738;DHT22;12049;51.068;3.688;2022-07-01T01:28:44;16.00;99.90
23738;DHT22;12049;51.068;3.688;2022-07-01T01:31:10;16.00;99.90
23738;DHT22;12049;51.068;3.688;2022-07-01T01:33:37;16.00;99.90
23738;DHT22;12049;51.068;3.688;2022-07-01T01:36:03;16.00;99.90
23738;DHT22;12049;51.068;3.688;2022-07-01T01:38:29;16.00;99.90
23738;DHT22;12049;51.068;3.688;2022-07-01T01:40:54;15.90;99.90
23738;DHT22;12049;51.068;3.688;2022-07-01T01:43:21;15.90;99.90
23738;DHT22;12049;51.068;3.688;2022-07-01T01:45:46;15.90;99.90
23738;DHT22;12049;51.068;3.688;2022-07-01T01:48:12;15.90;99.90
23738;DHT22;12049;51.068;3.688;2022-07-01T01:50:38;15.90;99.90
23738;DHT22;12049;51.068;3.688;2022-07-01T01:53:03;15.90;99.90
23738;DHT22;12049;51.068;3.688;2022-07-01T01:55:29;15.80;99.90
23738;DHT22;12049;51.068;3.688;2022-07-01T01:57:54;15.80;99.90
23738;DHT22;12049;51.068;3.688;2022-07-01T02:00:20;15.80;99.90
23738;DHT22;12049;51.068;3.688;2022-07-01T02:02:46;15.80;99.90
23738;DHT22;12049;51.068;3.688;2022-07-01T02:05:14;15.80;99.90
23738;DHT22;12049;51.068;3.688;2022-07-01T02:07:40;15.80;99.90
23738;DHT22;12049;51.068;3.688;2022-07-01T02:10:09;15.80;99.90
23738;DHT22;12049;51.068;3.688;2022-07-01T02:12:35;15.80;99.90
23738;DHT22;12049;51.068;3.688;2022-07-01T02:15:01;15.90;99.90
23738;DHT22;12049;51.068;3.688;2022-07-01T02:17:26;15.80;99.90
23738;DHT22;12049;51.068;3.688;2022-07-01T02:19:52;15.80;99.90
23738;DHT22;12049;51.068;3.688;2022-07-01T02:22:18;15.80;99.90
23738;DHT22;12049;51.068;3.688;2022-07-01T02:24:43;15.80;99.90
23738;DHT22;12049;51.068;3.688;2022-07-01T02:27:10;15.80;99.90
23738;DHT22;12049;51.068;3.688;2022-07-01T02:29:37;15.80;99.90
23738;DHT22;12049;51.068;3.688;2022-07-01T02:32:03;15.80;99.90
23738;DHT22;12049;51.068;3.688;2022-07-01T02:34:29;15.80;99.90
23738;DHT22;12049;51.068;3.688;2022-07-01T02:36:55;15.80;99.90
23738;DHT22;12049;51.068;3.688;2022-07-01T02:39:21;15.80;99.90
23738;DHT22;12049;51.068;3.688;2022-07-01T02:41:48;15.80;99.90
23738;DHT22;12049;51.068;3.688;2022-07-01T02:44:33;15.70;99.90
23738;DHT22;12049;51.068;3.688;2022-07-01T02:47:02;15.70;99.90
23738;DHT22;12049;51.068;3.688;2022-07-01T02:49:28;15.70;99.90
23738;DHT22;12049;51.068;3.688;2022-07-01T02:51:53;15.70;99.90
23738;DHT22;12049;51.068;3.688;2022-07-01T02:54:19;15.70;99.90
23738;DHT22;12049;51.068;3.688;2022-07-01T02:56:45;15.70;99.90
23738;DHT22;12049;51.068;3.688;2022-07-01T02:59:10;15.60;99.90
23738;DHT22;12049;51.068;3.688;2022-07-01T03:01:36;15.60;99.90
23738;DHT22;12049;51.068;3.688;2022-07-01T03:04:04;15.60;99.90
23738;DHT22;12049;51.068;3.688;2022-07-01T03:06:30;15.60;99.90
23738;DHT22;12049;51.068;3.688;2022-07-01T03:08:55;15.60;99.90
23738;DHT22;12049;51.068;3.688;2022-07-01T03:11:23;15.60;99.90
23738;DHT22;12049;51.068;3.688;2022-07-01T03:13:49;15.50;99.90
23738;DHT22;12049;51.068;3.688;2022-07-01T03:16:14;15.50;99.90
23738;DHT22;12049;51.068;3.688;2022-07-01T03:18:40;15.50;99.90
23738;DHT22;12049;51.068;3.688;2022-07-01T03:21:06;15.50;99.90
23738;DHT22;12049;51.068;3.688;2022-07-01T03:23:31;15.50;99.90
23738;DHT22;12049;51.068;3.688;2022-07-01T03:25:57;15.50;99.90
23738;DHT22;12049;51.068;3.688;2022-07-01T03:28:23;15.50;99.90
23738;DHT22;12049;51.068;3.688;2022-07-01T03:30:48;15.40;99.90
23738;DHT22;12049;51.068;3.688;2022-07-01T03:33:14;15.40;99.90
23738;DHT22;12049;51.068;3.688;2022-07-01T03:35:39;15.40;99.90
23738;DHT22;12049;51.068;3.688;2022-07-01T03:38:06;15.40;99.90
23738;DHT22;12049;51.068;3.688;2022-07-01T03:40:33;15.40;99.90
23738;DHT22;12049;51.068;3.688;2022-07-01T03:42:59;15.40;99.90
23738;DHT22;12049;51.068;3.688;2022-07-01T03:45:25;15.50;99.90
23738;DHT22;12049;51.068;3.688;2022-07-01T03:47:51;15.40;99.90
23738;DHT22;12049;51.068;3.688;2022-07-01T03:50:18;15.40;99.90
23738;DHT22;12049;51.068;3.688;2022-07-01T03:52:45;15.40;99.90
23738;DHT22;12049;51.068;3.688;2022-07-01T03:55:11;15.40;99.90
23738;DHT22;12049;51.068;3.688;2022-07-01T03:57:39;15.40;99.90
23738;DHT22;12049;51.068;3.688;2022-07-01T04:00:07;15.40;99.90
23738;DHT22;12049;51.068;3.688;2022-07-01T04:02:33;15.40;99.90
23738;DHT22;12049;51.068;3.688;2022-07-01T04:04:59;15.40;99.90
23738;DHT22;12049;51.068;3.688;2022-07-01T04:07:25;15.40;99.90
23738;DHT22;12049;51.068;3.688;2022-07-01T04:09:51;15.40;99.90
23738;DHT22;12049;51.068;3.688;2022-07-01T04:12:17;15.30;99.90
23738;DHT22;12049;51.068;3.688;2022-07-01T04:14:44;15.30;99.90
23738;DHT22;12049;51.068;3.688;2022-07-01T04:17:10;15.30;99.90
23738;DHT22;12049;51.068;3.688;2022-07-01T04:19:35;15.30;99.90
23738;DHT22;12049;51.068;3.688;2022-07-01T04:22:02;15.20;99.90
23738;DHT22;12049;51.068;3.688;2022-07-01T04:24:46;15.20;99.90
23738;DHT22;12049;51.068;3.688;2022-07-01T04:27:12;15.20;99.90
23738;DHT22;12049;51.068;3.688;2022-07-01T04:29:38;15.30;99.90
23738;DHT22;12049;51.068;3.688;2022-07-01T04:32:04;15.30;99.90
23738;DHT22;12049;51.068;3.688;2022-07-01T04:34:29;15.20;99.90
23738;DHT22;12049;51.068;3.688;2022-07-01T04:36:55;15.20;99.90
23738;DHT22;12049;51.068;3.688;2022-07-01T04:39:21;15.20;99.90
23738;DHT22;12049;51.068;3.688;2022-07-01T04:41:47;15.30;99.90
23738;DHT22;12049;51.068;3.688;2022-07-01T04:44:25;15.30;99.90
23738;DHT22;12049;51.068;3.688;2022-07-01T04:46:51;15.30;99.90
23738;DHT22;12049;51.068;3.688;2022-07-01T04:49:17;15.30;99.90
23738;DHT22;12049;51.068;3.688;2022-07-01T04:51:43;15.40;99.90
23738;DHT22;12049;51.068;3.688;2022-07-01T04:54:09;15.40;99.90
23738;DHT22;12049;51.068;3.688;2022-07-01T04:56:36;15.40;99.90
23738;DHT22;12049;51.068;3.688;2022-07-01T04:59:02;15.40;99.90
23738;DHT22;12049;51.068;3.688;2022-07-01T05:01:28;15.40;99.90
23738;DHT22;12049;51.068;3.688;2022-07-01T05:03:54;15.50;99.90
23738;DHT22;12049;51.068;3.688;2022-07-01T05:06:20;15.50;99.90
23738;DHT22;12049;51.068;3.688;2022-07-01T05:08:46;15.50;99.90
23738;DHT22;12049;51.068;3.688;2022-07-01T05:11:11;15.60;99.90
23738;DHT22;12049;51.068;3.688;2022-07-01T05:13:37;15.60;99.90
23738;DHT22;12049;51.068;3.688;2022-07-01T05:16:03;15.70;99.90
23738;DHT22;12049;51.068;3.688;2022-07-01T05:18:29;15.70;99.90
23738;DHT22;12049;51.068;3.688;2022-07-01T05:21:14;15.70;99.90
23738;DHT22;12049;51.068;3.688;2022-07-01T05:23:58;15.70;99.90
23738;DHT22;12049;51.068;3.688;2022-07-01T05:26:24;15.70;99.90
23738;DHT22;12049;51.068;3.688;2022-07-01T05:28:54;15.70;99.90
23738;DHT22;12049;51.068;3.688;2022-07-01T05:31:20;15.70;99.90
23738;DHT22;12049;51.068;3.688;2022-07-01T05:33:47;15.80;99.90
23738;DHT22;12049;51.068;3.688;2022-07-01T05:36:13;15.90;99.90
23738;DHT22;12049;51.068;3.688;2022-07-01T05:38:39;15.90;99.90
23738;DHT22;12049;51.068;3.688;2022-07-01T05:41:06;15.90;99.90
23738;DHT22;12049;51.068;3.688;2022-07-01T05:43:32;16.10;99.90
23738;DHT22;12049;51.068;3.688;2022-07-01T05:45:58;16.20;99.90
23738;DHT22;12049;51.068;3.688;2022-07-01T05:48:24;16.30;99.90
23738;DHT22;12049;51.068;3.688;2022-07-01T05:50:50;16.50;99.90
23738;DHT22;12049;51.068;3.688;2022-07-01T05:53:16;16.80;99.90
23738;DHT22;12049;51.068;3.688;2022-07-01T05:55:42;17.00;99.90
23738;DHT22;12049;51.068;3.688;2022-07-01T05:58:10;17.10;99.90
23738;DHT22;12049;51.068;3.688;2022-07-01T06:00:36;17.20;99.90
23738;DHT22;12049;51.068;3.688;2022-07-01T06:03:01;17.30;99.90
23738;DHT22;12049;51.068;3.688;2022-07-01T06:05:27;18.10;99.90
23738;DHT22;12049;51.068;3.688;2022-07-01T06:07:55;19.60;99.90
23738;DHT22;12049;51.068;3.688;2022-07-01T06:10:20;21.40;99.90
23738;DHT22;12049;51.068;3.688;2022-07-01T06:12:52;23.00;99.90
23738;DHT22;12049;51.068;3.688;2022-07-01T06:15:18;24.30;99.90
23738;DHT22;12049;51.068;3.688;2022-07-01T06:17:43;25.40;99.90
23738;DHT22;12049;51.068;3.688;2022-07-01T06:20:09;26.10;99.90
23738;DHT22;12049;51.068;3.688;2022-07-01T06:22:35;26.80;99.90
23738;DHT22;12049;51.068;3.688;2022-07-01T06:25:01;27.50;99.90
23738;DHT22;12049;51.068;3.688;2022-07-01T06:27:27;28.20;99.90
23738;DHT22;12049;51.068;3.688;2022-07-01T06:29:53;28.50;99.90
23738;DHT22;12049;51.068;3.688;2022-07-01T06:32:19;28.80;99.90
23738;DHT22;12049;51.068;3.688;2022-07-01T06:34:45;29.30;99.90
23738;DHT22;12049;51.068;3.688;2022-07-01T06:37:11;29.30;99.90
23738;DHT22;12049;51.068;3.688;2022-07-01T06:39:39;28.80;99.90
23738;DHT22;12049;51.068;3.688;2022-07-01T06:42:05;28.00;99.90
23738;DHT22;12049;51.068;3.688;2022-07-01T06:44:31;26.80;99.90
23738;DHT22;12049;51.068;3.688;2022-07-01T06:46:57;26.00;99.90
23738;DHT22;12049;51.068;3.688;2022-07-01T06:49:22;26.00;99.90
23738;DHT22;12049;51.068;3.688;2022-07-01T06:51:48;25.40;99.90
23738;DHT22;12049;51.068;3.688;2022-07-01T06:54:13;24.60;99.90
23738;DHT22;12049;51.068;3.688;2022-07-01T06:56:39;23.60;99.90
23738;DHT22;12049;51.068;3.688;2022-07-01T06:59:05;22.90;99.90
23738;DHT22;12049;51.068;3.688;2022-07-01T07:01:30;22.60;99.90
23738;DHT22;12049;51.068;3.688;2022-07-01T07:03:56;22.40;99.90
23738;DHT22;12049;51.068;3.688;2022-07-01T07:06:22;22.00;99.90
23738;DHT22;12049;51.068;3.688;2022-07-01T07:08:47;21.70;99.90
23738;DHT22;12049;51.068;3.688;2022-07-01T07:11:13;21.20;99.90
23738;DHT22;12049;51.068;3.688;2022-07-01T07:13:40;21.00;99.90
23738;DHT22;12049;51.068;3.688;2022-07-01T07:16:06;20.90;99.90
23738;DHT22;12049;51.068;3.688;2022-07-01T07:18:32;20.90;99.90
23738;DHT22;12049;51.068;3.688;2022-07-01T07:20:57;21.00;99.90
23738;DHT22;12049;51.068;3.688;2022-07-01T07:23:23;20.80;99.90
23738;DHT22;12049;51.068;3.688;2022-07-01T07:25:49;20.80;99.90
23738;DHT22;12049;51.068;3.688;2022-07-01T07:28:14;20.80;99.90
23738;DHT22;12049;51.068;3.688;2022-07-01T07:30:40;20.70;99.90
23738;DHT22;12049;51.068;3.688;2022-07-01T07:33:06;20.60;99.90
23738;DHT22;12049;51.068;3.688;2022-07-01T07:35:31;20.60;99.90
23738;DHT22;12049;51.068;3.688;2022-07-01T07:37:57;20.50;99.90
23738;DHT22;12049;51.068;3.688;2022-07-01T07:40:23;20.40;99.90
23738;DHT22;12049;51.068;3.688;2022-07-01T07:42:49;20.50;99.90
23738;DHT22;12049;51.068;3.688;2022-07-01T07:45:15;20.90;99.90
23738;DHT22;12049;51.068;3.688;2022-07-01T07:47:42;22.20;99.90
23738;DHT22;12049;51.068;3.688;2022-07-01T07:50:10;23.80;99.90
23738;DHT22;12049;51.068;3.688;2022-07-01T07:52:36;24.90;99.90
23738;DHT22;12049;51.068;3.688;2022-07-01T07:55:02;26.30;99.90
23738;DHT22;12049;51.068;3.688;2022-07-01T07:57:27;27.50;99.90
23738;DHT22;12049;51.068;3.688;2022-07-01T07:59:53;28.60;99.90
23738;DHT22;12049;51.068;3.688;2022-07-01T08:02:19;29.40;99.90
23738;DHT22;12049;51.068;3.688;2022-07-01T08:04:44;30.20;99.90
23738;DHT22;12049;51.068;3.688;2022-07-01T08:07:10;30.70;99.90
23738;DHT22;12049;51.068;3.688;2022-07-01T08:09:36;31.00;99.90
23738;DHT22;12049;51.068;3.688;2022-07-01T08:12:02;31.30;99.90
23738;DHT22;12049;51.068;3.688;2022-07-01T08:14:28;31.70;99.00
23738;DHT22;12049;51.068;3.688;2022-07-01T08:16:54;31.80;99.50
23738;DHT22;12049;51.068;3.688;2022-07-01T08:19:19;32.30;99.90
23738;DHT22;12049;51.068;3.688;2022-07-01T08:21:45;33.00;99.00
23738;DHT22;12049;51.068;3.688;2022-07-01T08:24:11;33.40;94.10
23738;DHT22;12049;51.068;3.688;2022-07-01T08:26:37;33.00;93.70
23738;DHT22;12049;51.068;3.688;2022-07-01T08:29:03;32.30;93.60
23738;DHT22;12049;51.068;3.688;2022-07-01T08:31:28;31.10;94.80
23738;DHT22;12049;51.068;3.688;2022-07-01T08:33:55;29.80;94.50
23738;DHT22;12049;51.068;3.688;2022-07-01T08:36:21;28.70;96.60
23738;DHT22;12049;51.068;3.688;2022-07-01T08:38:46;28.40;97.40
23738;DHT22;12049;51.068;3.688;2022-07-01T08:41:14;27.50;99.80
23738;DHT22;12049;51.068;3.688;2022-07-01T08:43:40;27.90;99.90
23738;DHT22;12049;51.068;3.688;2022-07-01T08:46:07;29.00;99.90
23738;DHT22;12049;51.068;3.688;2022-07-01T08:48:33;30.50;99.50
23738;DHT22;12049;51.068;3.688;2022-07-01T08:50:59;31.50;98.60
23738;DHT22;12049;51.068;3.688;2022-07-01T08:53:30;32.20;96.20
23738;DHT22;12049;51.068;3.688;2022-07-01T08:55:57;32.60;94.20
23738;DHT22;12049;51.068;3.688;2022-07-01T08:58:41;33.10;95.60
23738;DHT22;12049;51.068;3.688;2022-07-01T09:01:21;33.60;92.00
23738;DHT22;12049;51.068;3.688;2022-07-01T09:03:48;33.90;93.80
23738;DHT22;12049;51.068;3.688;2022-07-01T09:06:18;33.90;91.40
23738;DHT22;12049;51.068;3.688;2022-07-01T09:08:45;32.50;91.00
23738;DHT22;12049;51.068;3.688;2022-07-01T09:11:22;30.90;92.40
23738;DHT22;12049;51.068;3.688;2022-07-01T09:19:05;29.80;94.40
23738;DHT22;12049;51.068;3.688;2022-07-01T09:21:32;28.90;95.30
23738;DHT22;12049;51.068;3.688;2022-07-01T09:24:02;28.10;96.30
23738;DHT22;12049;51.068;3.688;2022-07-01T09:26:28;27.90;97.80
23738;DHT22;12049;51.068;3.688;2022-07-01T09:28:54;27.70;96.30
23738;DHT22;12049;51.068;3.688;2022-07-01T09:31:33;27.20;97.80
23738;DHT22;12049;51.068;3.688;2022-07-01T09:34:04;27.60;99.60
23738;DHT22;12049;51.068;3.688;2022-07-01T09:36:30;27.40;98.20
23738;DHT22;12049;51.068;3.688;2022-07-01T09:38:56;26.80;97.80
23738;DHT22;12049;51.068;3.688;2022-07-01T09:41:23;26.30;98.90
23738;DHT22;12049;51.068;3.688;2022-07-01T09:43:49;26.50;99.40
23738;DHT22;12049;51.068;3.688;2022-07-01T09:46:15;27.50;97.00
23738;DHT22;12049;51.068;3.688;2022-07-01T09:48:43;28.40;96.20
23738;DHT22;12049;51.068;3.688;2022-07-01T09:51:11;29.10;97.20
23738;DHT22;12049;51.068;3.688;2022-07-01T09:53:37;29.70;96.70
23738;DHT22;12049;51.068;3.688;2022-07-01T09:56:03;29.90;95.40
23738;DHT22;12049;51.068;3.688;2022-07-01T09:58:29;30.30;95.20
23738;DHT22;12049;51.068;3.688;2022-07-01T10:00:57;30.50;94.90
23738;DHT22;12049;51.068;3.688;2022-07-01T10:03:26;30.00;94.70
23738;DHT22;12049;51.068;3.688;2022-07-01T10:08:42;29.40;95.40
23738;DHT22;12049;51.068;3.688;2022-07-01T10:13:40;28.20;95.90
23738;DHT22;12049;51.068;3.688;2022-07-01T10:16:08;28.30;99.10
23738;DHT22;12049;51.068;3.688;2022-07-01T10:18:34;28.70;97.10
23738;DHT22;12049;51.068;3.688;2022-07-01T10:21:03;29.10;95.30
23738;DHT22;12049;51.068;3.688;2022-07-01T10:23:41;29.50;95.90
23738;DHT22;12049;51.068;3.688;2022-07-01T10:26:08;29.80;96.20
23738;DHT22;12049;51.068;3.688;2022-07-01T10:28:40;29.80;94.30
23738;DHT22;12049;51.068;3.688;2022-07-01T10:31:13;30.00;94.90
23738;DHT22;12049;51.068;3.688;2022-07-01T10:33:58;29.70;94.80
23738;DHT22;12049;51.068;3.688;2022-07-01T10:36:32;29.60;93.70
23738;DHT22;12049;51.068;3.688;2022-07-01T10:44:17;29.80;94.70
23738;DHT22;12049;51.068;3.688;2022-07-01T10:46:54;29.70;95.90
23738;DHT22;12049;51.068;3.688;2022-07-01T10:52:09;29.90;94.60
23738;DHT22;12049;51.068;3.688;2022-07-01T11:02:39;29.40;94.00
23738;DHT22;12049;51.068;3.688;2022-07-01T11:05:09;28.90;93.80
23738;DHT22;12049;51.068;3.688;2022-07-01T11:07:37;29.20;95.10
23738;DHT22;12049;51.068;3.688;2022-07-01T11:10:05;29.40;95.40
23738;DHT22;12049;51.068;3.688;2022-07-01T11:12:31;29.70;92.70
23738;DHT22;12049;51.068;3.688;2022-07-01T11:14:58;29.80;91.60
23738;DHT22;12049;51.068;3.688;2022-07-01T11:17:25;29.80;90.60
23738;DHT22;12049;51.068;3.688;2022-07-01T11:19:53;29.70;92.80
23738;DHT22;12049;51.068;3.688;2022-07-01T11:22:23;29.80;93.50
23738;DHT22;12049;51.068;3.688;2022-07-01T11:24:54;30.00;93.40
23738;DHT22;12049;51.068;3.688;2022-07-01T11:27:20;29.60;91.30
23738;DHT22;12049;51.068;3.688;2022-07-01T11:29:51;29.60;92.80
23738;DHT22;12049;51.068;3.688;2022-07-01T11:32:28;29.70;93.90
23738;DHT22;12049;51.068;3.688;2022-07-01T11:34:54;30.00;92.60
23738;DHT22;12049;51.068;3.688;2022-07-01T11:37:20;29.40;93.10
23738;DHT22;12049;51.068;3.688;2022-07-01T11:40:10;28.80;93.20
23738;DHT22;12049;51.068;3.688;2022-07-01T11:42:37;28.10;94.40
23738;DHT22;12049;51.068;3.688;2022-07-01T11:45:03;27.30;94.40
23738;DHT22;12049;51.068;3.688;2022-07-01T11:47:29;26.70;96.40
23738;DHT22;12049;51.068;3.688;2022-07-01T11:49:56;26.10;97.40
23738;DHT22;12049;51.068;3.688;2022-07-01T11:52:22;25.20;99.90
23738;DHT22;12049;51.068;3.688;2022-07-01T11:54:51;24.20;99.90
23738;DHT22;12049;51.068;3.688;2022-07-01T11:57:17;23.80;99.90
23738;DHT22;12049;51.068;3.688;2022-07-01T11:59:44;23.40;99.90
23738;DHT22;12049;51.068;3.688;2022-07-01T12:02:12;23.00;99.90
23738;DHT22;12049;51.068;3.688;2022-07-01T12:04:39;22.70;99.90
23738;DHT22;12049;51.068;3.688;2022-07-01T12:07:06;22.30;99.90
23738;DHT22;12049;51.068;3.688;2022-07-01T12:09:32;22.20;99.90
23738;DHT22;12049;51.068;3.688;2022-07-01T12:11:58;22.10;99.90
23738;DHT22;12049;51.068;3.688;2022-07-01T12:14:27;22.10;99.90
23738;DHT22;12049;51.068;3.688;2022-07-01T12:16:55;22.10;99.90
23738;DHT22;12049;51.068;3.688;2022-07-01T12:19:27;22.10;99.90
23738;DHT22;12049;51.068;3.688;2022-07-01T12:21:56;22.20;99.90
23738;DHT22;12049;51.068;3.688;2022-07-01T12:24:25;22.20;99.90
23738;DHT22;12049;51.068;3.688;2022-07-01T12:29:27;22.00;99.90
23738;DHT22;12049;51.068;3.688;2022-07-01T12:32:01;21.80;99.90
23738;DHT22;12049;51.068;3.688;2022-07-01T12:34:44;21.80;99.90
23738;DHT22;12049;51.068;3.688;2022-07-01T12:37:13;21.80;99.90
23738;DHT22;12049;51.068;3.688;2022-07-01T12:39:51;21.80;99.90
23738;DHT22;12049;51.068;3.688;2022-07-01T12:45:23;22.30;99.90
23738;DHT22;12049;51.068;3.688;2022-07-01T12:47:50;22.80;99.90
23738;DHT22;12049;51.068;3.688;2022-07-01T12:50:24;23.10;99.90
23738;DHT22;12049;51.068;3.688;2022-07-01T12:55:35;23.30;99.90
23738;DHT22;12049;51.068;3.688;2022-07-01T12:58:02;23.50;99.90
23738;DHT22;12049;51.068;3.688;2022-07-01T13:00:29;23.70;99.90
23738;DHT22;12049;51.068;3.688;2022-07-01T13:02:57;23.70;99.90
23738;DHT22;12049;51.068;3.688;2022-07-01T13:05:23;23.70;99.90
23738;DHT22;12049;51.068;3.688;2022-07-01T13:07:49;23.70;99.90
23738;DHT22;12049;51.068;3.688;2022-07-01T13:10:16;23.80;99.90
23738;DHT22;12049;51.068;3.688;2022-07-01T13:12:43;23.80;99.90
23738;DHT22;12049;51.068;3.688;2022-07-01T13:15:10;23.80;99.90
23738;DHT22;12049;51.068;3.688;2022-07-01T13:17:36;24.00;99.90
23738;DHT22;12049;51.068;3.688;2022-07-01T13:20:03;24.30;99.90
23738;DHT22;12049;51.068;3.688;2022-07-01T13:22:28;24.50;99.90
23738;DHT22;12049;51.068;3.688;2022-07-01T13:24:54;24.70;99.90
23738;DHT22;12049;51.068;3.688;2022-07-01T13:27:20;24.80;99.90
23738;DHT22;12049;51.068;3.688;2022-07-01T13:29:48;24.40;99.90
23738;DHT22;12049;51.068;3.688;2022-07-01T13:32:14;24.50;99.90
23738;DHT22;12049;51.068;3.688;2022-07-01T13:34:40;24.50;99.90
23738;DHT22;12049;51.068;3.688;2022-07-01T13:37:06;24.30;99.90
23738;DHT22;12049;51.068;3.688;2022-07-01T13:39:31;24.50;99.90
23738;DHT22;12049;51.068;3.688;2022-07-01T13:41:57;24.30;99.90
23738;DHT22;12049;51.068;3.688;2022-07-01T13:44:22;24.10;99.90
23738;DHT22;12049;51.068;3.688;2022-07-01T13:46:48;24.00;99.90
23738;DHT22;12049;51.068;3.688;2022-07-01T13:49:14;23.90;99.90
23738;DHT22;12049;51.068;3.688;2022-07-01T13:51:40;23.80;99.90
23738;DHT22;12049;51.068;3.688;2022-07-01T13:54:06;23.60;99.90
23738;DHT22;12049;51.068;3.688;2022-07-01T13:56:32;23.50;99.90
23738;DHT22;12049;51.068;3.688;2022-07-01T13:58:58;23.60;99.90
23738;DHT22;12049;51.068;3.688;2022-07-01T14:01:23;23.60;99.90
23738;DHT22;12049;51.068;3.688;2022-07-01T14:03:50;23.70;99.90
23738;DHT22;12049;51.068;3.688;2022-07-01T14:06:16;23.60;99.90
23738;DHT22;12049;51.068;3.688;2022-07-01T14:08:42;23.50;99.90
23738;DHT22;12049;51.068;3.688;2022-07-01T14:11:08;23.50;99.90
23738;DHT22;12049;51.068;3.688;2022-07-01T14:13:34;23.30;99.90
23738;DHT22;12049;51.068;3.688;2022-07-01T14:16:02;23.30;99.90
23738;DHT22;12049;51.068;3.688;2022-07-01T14:18:29;23.30;99.90
23738;DHT22;12049;51.068;3.688;2022-07-01T14:20:55;23.40;99.90
23738;DHT22;12049;51.068;3.688;2022-07-01T14:23:21;23.40;99.90
23738;DHT22;12049;51.068;3.688;2022-07-01T14:25:49;23.60;99.90
23738;DHT22;12049;51.068;3.688;2022-07-01T14:28:15;23.70;99.90
23738;DHT22;12049;51.068;3.688;2022-07-01T14:30:41;23.60;99.90
23738;DHT22;12049;51.068;3.688;2022-07-01T14:33:06;23.70;99.90
23738;DHT22;12049;51.068;3.688;2022-07-01T14:35:32;23.70;99.90
23738;DHT22;12049;51.068;3.688;2022-07-01T14:37:58;23.70;99.90
23738;DHT22;12049;51.068;3.688;2022-07-01T14:40:27;23.60;99.90
23738;DHT22;12049;51.068;3.688;2022-07-01T14:42:53;23.60;99.90
23738;DHT22;12049;51.068;3.688;2022-07-01T14:45:18;23.50;99.90
23738;DHT22;12049;51.068;3.688;2022-07-01T14:47:45;23.60;99.90
23738;DHT22;12049;51.068;3.688;2022-07-01T14:50:11;23.80;99.90
23738;DHT22;12049;51.068;3.688;2022-07-01T14:52:37;23.90;99.90
23738;DHT22;12049;51.068;3.688;2022-07-01T14:55:04;23.90;99.90
23738;DHT22;12049;51.068;3.688;2022-07-01T14:57:30;23.80;99.90
23738;DHT22;12049;51.068;3.688;2022-07-01T14:59:55;23.50;99.90
23738;DHT22;12049;51.068;3.688;2022-07-01T15:02:22;23.30;99.90
23738;DHT22;12049;51.068;3.688;2022-07-01T15:04:48;23.30;99.90
23738;DHT22;12049;51.068;3.688;2022-07-01T15:07:14;23.30;99.90
23738;DHT22;12049;51.068;3.688;2022-07-01T15:09:40;23.20;99.90
23738;DHT22;12049;51.068;3.688;2022-07-01T15:12:05;23.10;99.90
23738;DHT22;12049;51.068;3.688;2022-07-01T15:14:32;23.30;99.90
23738;DHT22;12049;51.068;3.688;2022-07-01T15:16:58;23.30;99.90
23738;DHT22;12049;51.068;3.688;2022-07-01T15:19:25;23.30;99.90
23738;DHT22;12049;51.068;3.688;2022-07-01T15:21:55;23.50;99.90
23738;DHT22;12049;51.068;3.688;2022-07-01T15:24:21;23.60;99.90
23738;DHT22;12049;51.068;3.688;2022-07-01T15:26:47;23.70;99.90
23738;DHT22;12049;51.068;3.688;2022-07-01T15:29:13;23.80;99.90
23738;DHT22;12049;51.068;3.688;2022-07-01T15:31:39;23.90;99.90
23738;DHT22;12049;51.068;3.688;2022-07-01T15:34:05;24.10;99.90
23738;DHT22;12049;51.068;3.688;2022-07-01T15:36:31;24.10;99.90
23738;DHT22;12049;51.068;3.688;2022-07-01T15:38:56;23.90;99.90
23738;DHT22;12049;51.068;3.688;2022-07-01T15:41:28;23.60;99.90
23738;DHT22;12049;51.068;3.688;2022-07-01T15:43:53;23.60;99.90
23738;DHT22;12049;51.068;3.688;2022-07-01T15:46:20;23.60;99.90
23738;DHT22;12049;51.068;3.688;2022-07-01T15:48:46;23.60;99.90
23738;DHT22;12049;51.068;3.688;2022-07-01T15:51:12;23.50;99.90
23738;DHT22;12049;51.068;3.688;2022-07-01T15:53:37;23.80;99.90
23738;DHT22;12049;51.068;3.688;2022-07-01T15:56:03;23.90;99.90
23738;DHT22;12049;51.068;3.688;2022-07-01T15:58:29;23.90;99.90
23738;DHT22;12049;51.068;3.688;2022-07-01T16:00:57;23.80;99.90
23738;DHT22;12049;51.068;3.688;2022-07-01T16:03:23;23.70;99.90